createdAt,value
2023-04-21T00:00:43.108Z,94.30
2023-04-21T00:03:34.342Z,94.30
2023-04-21T00:06:23.622Z,94.40
2023-04-21T00:09:12.043Z,94.30
2023-04-21T00:11:59.606Z,94.30
2023-04-21T00:14:46.940Z,94.30
2023-04-21T00:17:35.212Z,94.30
2023-04-21T00:20:27.168Z,94.30
2023-04-21T00:23:17.675Z,94.30
2023-04-21T00:26:09.849Z,94.30
2023-04-21T00:29:02.171Z,94.40
2023-04-21T00:31:51.650Z,94.30
2023-04-21T00:34:39.280Z,94.20
2023-04-21T00:37:31.260Z,94.40
2023-04-21T00:40:23.922Z,94.40
2023-04-21T00:43:11.729Z,94.30
2023-04-21T00:46:02.361Z,94.80
2023-04-21T00:48:52.787Z,94.40
2023-04-21T00:51:49.234Z,94.40
2023-04-21T00:54:38.843Z,94.40
2023-04-21T00:57:26.407Z,94.40
2023-04-21T01:00:17.995Z,94.40
2023-04-21T01:03:08.365Z,94.40
2023-04-21T01:05:58.903Z,94.50
2023-04-21T01:08:54.687Z,94.40
2023-04-21T01:12:02.548Z,94.50
2023-04-21T01:14:55.042Z,94.50
2023-04-21T01:17:42.603Z,94.50
2023-04-21T01:20:30.645Z,94.50
2023-04-21T01:23:24.380Z,94.50
2023-04-21T01:26:16.495Z,94.50
2023-04-21T01:29:09.778Z,94.60
2023-04-21T01:31:59.033Z,94.60
2023-04-21T01:34:50.295Z,94.60
2023-04-21T01:37:44.104Z,94.70
2023-04-21T01:40:37.945Z,94.60
2023-04-21T01:43:30.922Z,94.60
2023-04-21T01:46:21.366Z,94.70
2023-04-21T01:49:09.789Z,94.60
2023-04-21T01:51:59.808Z,94.60
2023-04-21T01:54:47.169Z,94.60
2023-04-21T01:57:40.627Z,94.60
2023-04-21T02:00:32.291Z,94.60
2023-04-21T02:03:25.811Z,94.60
2023-04-21T02:06:15.071Z,94.60
2023-04-21T02:09:02.725Z,94.60
2023-04-21T02:11:55.140Z,94.60
2023-04-21T02:14:48.507Z,94.70
2023-04-21T02:17:43.102Z,94.70
2023-04-21T02:20:31.043Z,94.60
2023-04-21T02:23:24.364Z,94.70
2023-04-21T02:26:11.697Z,94.80
2023-04-21T02:29:02.721Z,94.70
2023-04-21T02:32:03.109Z,94.80
2023-04-21T02:35:03.584Z,94.90
2023-04-21T02:37:52.009Z,94.90
2023-04-21T02:40:39.925Z,94.90
2023-04-21T02:43:31.069Z,94.90
2023-04-21T02:46:27.781Z,95.00
2023-04-21T02:49:17.115Z,95.00
2023-04-21T02:52:06.476Z,95.10
2023-04-21T02:54:54.184Z,95.10
2023-04-21T02:57:41.623Z,95.20
2023-04-21T03:00:31.862Z,95.20
2023-04-21T03:03:19.611Z,95.30
2023-04-21T03:06:11.620Z,95.30
2023-04-21T03:09:00.187Z,95.40
2023-04-21T03:11:48.030Z,95.40
2023-04-21T03:14:39.554Z,95.50
2023-04-21T03:17:28.577Z,95.40
2023-04-21T03:20:17.264Z,95.50
2023-04-21T03:23:09.409Z,95.50
2023-04-21T03:25:59.278Z,95.50
2023-04-21T03:28:47.126Z,95.50
2023-04-21T03:31:34.383Z,95.50
2023-04-21T03:34:22.059Z,95.50
2023-04-21T03:37:12.742Z,95.50
2023-04-21T03:40:02.817Z,95.50
2023-04-21T03:42:50.324Z,95.50
2023-04-21T03:45:40.324Z,95.50
2023-04-21T03:48:29.895Z,95.50
2023-04-21T03:51:28.720Z,95.60
2023-04-21T03:54:15.766Z,95.60
2023-04-21T03:57:04.999Z,95.60
2023-04-21T03:59:56.049Z,95.70
2023-04-21T04:02:44.072Z,95.70
2023-04-21T04:05:31.754Z,95.70
2023-04-21T04:08:20.610Z,95.80
2023-04-21T04:11:11.026Z,95.80
2023-04-21T04:14:08.459Z,95.80
2023-04-21T04:16:56.021Z,95.80
2023-04-21T04:19:44.378Z,95.90
2023-04-21T04:22:31.936Z,95.90
2023-04-21T04:25:22.021Z,95.90
2023-04-21T04:28:13.062Z,95.90
2023-04-21T04:31:04.453Z,95.90
2023-04-21T04:33:54.685Z,96.00
2023-04-21T04:36:43.622Z,96.00
2023-04-21T04:39:35.049Z,96.00
2023-04-21T04:42:22.595Z,96.00
2023-04-21T04:45:17.483Z,96.00
2023-04-21T04:48:17.469Z,96.00
2023-04-21T04:51:09.719Z,96.00
2023-04-21T04:54:04.009Z,96.10
2023-04-21T04:56:57.384Z,96.10
2023-04-21T04:59:49.559Z,96.20
2023-04-21T05:02:43.247Z,96.20
2023-04-21T05:05:45.231Z,96.30
2023-04-21T05:08:38.946Z,96.30
2023-04-21T05:11:37.194Z,96.40
2023-04-21T05:14:30.095Z,96.40
2023-04-21T05:17:30.568Z,96.30
2023-04-21T05:20:20.665Z,96.40
2023-04-21T05:23:34.536Z,96.50
2023-04-21T05:26:26.544Z,96.50
2023-04-21T05:29:24.564Z,96.50
2023-04-21T05:32:20.605Z,96.50
2023-04-21T05:35:14.697Z,96.50
2023-04-21T05:38:16.548Z,96.50
2023-04-21T05:41:14.431Z,96.50
2023-04-21T05:44:09.461Z,96.50
2023-04-21T05:47:08.485Z,96.40
2023-04-21T05:50:00.641Z,96.40
2023-04-21T05:52:52.229Z,96.40
2023-04-21T05:55:46.911Z,96.30
2023-04-21T05:58:44.377Z,96.20
2023-04-21T06:01:37.938Z,96.00
2023-04-21T06:04:28.242Z,95.80
2023-04-21T06:07:22.227Z,95.60
2023-04-21T06:10:13.865Z,95.50
2023-04-21T06:13:05.939Z,95.30
2023-04-21T06:15:57.297Z,94.80
2023-04-21T06:18:46.813Z,94.50
2023-04-21T06:21:34.720Z,94.20
2023-04-21T06:24:25.773Z,94.20
2023-04-21T06:27:20.755Z,94.10
2023-04-21T06:30:15.314Z,93.70
2023-04-21T06:33:03.019Z,94.00
2023-04-21T06:35:50.458Z,93.10
2023-04-21T06:38:40.063Z,93.10
2023-04-21T06:41:27.177Z,92.80
2023-04-21T06:44:14.364Z,92.60
2023-04-21T06:47:02.945Z,92.40
2023-04-21T06:49:49.989Z,92.00
2023-04-21T06:52:37.472Z,91.70
2023-04-21T06:55:24.844Z,91.30
2023-04-21T06:58:12.504Z,91.00
2023-04-21T07:01:07.765Z,90.70
2023-04-21T07:03:57.844Z,90.00
2023-04-21T07:06:48.815Z,89.60
2023-04-21T07:09:36.696Z,88.50
2023-04-21T07:12:24.395Z,88.70
2023-04-21T07:15:16.833Z,88.00
2023-04-21T07:18:04.723Z,87.20
2023-04-21T07:20:56.933Z,86.70
2023-04-21T07:23:46.816Z,86.60
2023-04-21T07:26:34.876Z,86.50
2023-04-21T07:29:22.395Z,86.20
2023-04-21T07:32:12.092Z,86.30
2023-04-21T07:35:03.732Z,85.70
2023-04-21T07:38:02.874Z,85.70
2023-04-21T07:40:53.916Z,86.20
2023-04-21T07:43:47.584Z,86.30
2023-04-21T07:46:40.038Z,86.20
2023-04-21T07:49:33.494Z,84.80
2023-04-21T07:52:53.458Z,84.80
2023-04-21T07:55:35.676Z,83.60
2023-04-21T07:58:30.940Z,82.60
2023-04-21T08:01:21.272Z,81.70
2023-04-21T08:04:13.746Z,81.00
2023-04-21T08:07:12.334Z,80.60
2023-04-21T08:19:11.549Z,74.70
2023-04-21T08:22:04.281Z,73.80
2023-04-21T08:25:00.821Z,72.10
2023-04-21T08:27:51.206Z,68.50
2023-04-21T08:30:44.433Z,69.00
2023-04-21T08:33:46.833Z,62.80
2023-04-21T08:36:48.204Z,58.20
2023-04-21T08:39:47.692Z,56.60
2023-04-21T08:45:46.859Z,52.80
2023-04-21T08:48:43.165Z,50.70
2023-04-21T08:51:35.592Z,48.00
2023-04-21T08:54:27.488Z,46.00
2023-04-21T08:57:20.786Z,45.60
2023-04-21T09:00:15.204Z,44.30
2023-04-21T09:03:22.995Z,43.70
2023-04-21T09:06:20.650Z,42.90
2023-04-21T09:09:13.744Z,44.00
2023-04-21T09:12:11.003Z,42.20
2023-04-21T09:15:13.950Z,41.20
2023-04-21T09:18:08.084Z,40.20
2023-04-21T09:21:13.291Z,40.50
2023-04-21T09:24:10.433Z,41.00
2023-04-21T09:27:03.039Z,44.40
2023-04-21T09:29:56.819Z,43.90
2023-04-21T09:32:53.735Z,41.40
2023-04-21T09:35:46.408Z,41.40
2023-04-21T09:38:38.949Z,40.60
2023-04-21T09:41:39.383Z,40.50
2023-04-21T09:44:36.374Z,38.50
2023-04-21T09:47:39.605Z,39.10
2023-04-21T09:53:30.812Z,36.20
2023-04-21T09:56:27.492Z,35.50
2023-04-21T09:59:28.457Z,34.60
2023-04-21T10:02:31.022Z,34.90
2023-04-21T10:05:20.759Z,35.80
2023-04-21T10:08:16.035Z,36.90
2023-04-21T10:11:10.155Z,34.70
2023-04-21T10:14:01.123Z,35.00
2023-04-21T10:17:10.501Z,37.40
2023-04-21T10:20:17.709Z,36.40
2023-04-21T10:23:17.176Z,36.80
2023-04-21T10:26:27.815Z,39.40
2023-04-21T10:29:55.465Z,42.20
2023-04-21T10:33:16.932Z,44.60
2023-04-21T10:36:24.312Z,45.60
2023-04-21T10:39:37.284Z,48.70
2023-04-21T10:42:55.990Z,50.00
2023-04-21T10:46:11.387Z,52.70
2023-04-21T10:52:24.150Z,55.10
2023-04-21T10:55:20.219Z,55.40
2023-04-21T10:58:20.475Z,55.60
2023-04-21T11:01:17.028Z,55.80
2023-04-21T11:04:17.020Z,56.90
2023-04-21T11:07:12.850Z,57.90
2023-04-21T11:10:05.605Z,59.50
2023-04-21T11:13:02.445Z,58.90
2023-04-21T11:16:12.030Z,60.10
2023-04-21T11:19:02.724Z,59.60
2023-04-21T11:21:59.463Z,59.60
2023-04-21T11:24:57.698Z,59.90
2023-04-21T11:28:06.390Z,61.70
2023-04-21T11:31:06.793Z,63.20
2023-04-21T11:34:01.453Z,61.70
2023-04-21T11:36:53.218Z,63.60
2023-04-21T11:39:47.555Z,63.30
2023-04-21T11:42:43.683Z,62.30
2023-04-21T11:45:35.409Z,61.90
2023-04-21T11:48:35.917Z,61.00
2023-04-21T11:51:26.720Z,62.30
2023-04-21T11:54:24.819Z,60.00
2023-04-21T11:57:22.762Z,60.20
2023-04-21T12:00:19.070Z,61.00
2023-04-21T12:03:13.345Z,60.20
2023-04-21T12:06:09.136Z,62.50
2023-04-21T12:09:10.200Z,61.70
2023-04-21T12:12:09.274Z,60.20
2023-04-21T12:15:14.214Z,62.70
2023-04-21T12:18:08.910Z,61.00
2023-04-21T12:21:20.191Z,60.40
2023-04-21T12:24:19.900Z,61.40
2023-04-21T12:27:23.517Z,59.80
2023-04-21T12:30:14.761Z,59.70
2023-04-21T12:33:21.505Z,59.20
2023-04-21T12:39:22.667Z,59.30
2023-04-21T12:42:10.314Z,59.30
2023-04-21T12:44:58.449Z,57.70
2023-04-21T12:47:47.088Z,57.60
2023-04-21T12:50:35.183Z,56.90
2023-04-21T12:53:23.107Z,56.00
2023-04-21T12:56:12.041Z,55.40
2023-04-21T12:58:59.469Z,55.50
2023-04-21T13:01:47.117Z,55.50
2023-04-21T13:04:39.450Z,55.30
2023-04-21T13:07:34.161Z,54.30
2023-04-21T13:10:26.019Z,53.50
2023-04-21T13:13:21.187Z,53.00
2023-04-21T13:16:12.698Z,52.60
2023-04-21T13:19:06.616Z,52.60
2023-04-21T13:21:54.910Z,53.30
2023-04-21T13:24:45.670Z,51.90
2023-04-21T13:27:37.602Z,52.10
2023-04-21T13:30:26.728Z,52.70
2023-04-21T13:33:21.746Z,51.50
2023-04-21T13:36:13.733Z,51.20
2023-04-21T13:39:02.046Z,51.00
2023-04-21T13:41:54.377Z,51.10
2023-04-21T13:44:47.744Z,51.60
2023-04-21T13:47:38.469Z,51.20
2023-04-21T13:50:26.755Z,51.30
2023-04-21T13:53:17.185Z,52.20
2023-04-21T13:56:06.521Z,51.90
2023-04-21T13:58:58.061Z,51.10
2023-04-21T14:01:51.538Z,51.10
2023-04-21T14:04:41.540Z,50.80
2023-04-21T14:07:30.324Z,50.40
2023-04-21T14:10:18.686Z,49.90
2023-04-21T14:13:07.274Z,49.80
2023-04-21T14:15:55.358Z,50.20
2023-04-21T14:18:45.588Z,49.10
2023-04-21T14:21:35.435Z,49.50
2023-04-21T14:24:29.328Z,49.00
2023-04-21T14:27:23.518Z,49.00
2023-04-21T14:30:18.732Z,48.80
2023-04-21T14:33:27.260Z,48.30
2023-04-21T14:36:30.387Z,49.00
2023-04-21T14:39:33.999Z,48.70
2023-04-21T14:42:26.385Z,49.20
2023-04-21T14:45:25.834Z,49.40
2023-04-21T14:48:20.331Z,50.00
2023-04-21T14:51:36.382Z,49.40
2023-04-21T14:54:28.747Z,49.50
2023-04-21T14:57:21.266Z,49.50
2023-04-21T15:00:15.843Z,49.10
2023-04-21T15:03:12.319Z,49.40
2023-04-21T15:06:10.571Z,49.40
2023-04-21T15:09:02.497Z,50.20
2023-04-21T15:11:53.344Z,49.10
2023-04-21T15:14:41.915Z,49.50
2023-04-21T15:17:30.504Z,49.60
2023-04-21T15:20:20.813Z,49.60
2023-04-21T15:23:13.398Z,49.00
2023-04-21T15:26:01.364Z,48.50
2023-04-21T15:28:51.140Z,48.50
2023-04-21T15:31:39.113Z,48.70
2023-04-21T15:34:34.227Z,48.80
2023-04-21T15:37:27.891Z,48.90
2023-04-21T15:40:21.135Z,48.90
2023-04-21T15:43:13.880Z,48.50
2023-04-21T15:46:15.001Z,48.20
2023-04-21T15:49:11.576Z,48.60
2023-04-21T15:52:09.495Z,48.60
2023-04-21T15:55:13.913Z,48.60
2023-04-21T15:58:08.089Z,48.80
2023-04-21T16:01:04.573Z,49.10
2023-04-21T16:04:00.351Z,49.00
2023-04-21T16:07:07.701Z,49.70
2023-04-21T16:09:58.837Z,50.30
2023-04-21T16:13:03.265Z,49.90
2023-04-21T16:15:56.095Z,50.10
2023-04-21T16:18:47.130Z,50.50
2023-04-21T16:21:46.471Z,50.70
2023-04-21T16:24:40.698Z,50.60
2023-04-21T16:27:39.770Z,50.70
2023-04-21T16:30:36.614Z,51.10
2023-04-21T16:33:32.135Z,51.50
2023-04-21T16:36:29.567Z,51.90
2023-04-21T16:39:25.224Z,52.10
2023-04-21T16:42:18.956Z,52.30
2023-04-21T16:45:13.777Z,52.80
2023-04-21T16:48:04.371Z,52.70
2023-04-21T16:51:04.685Z,53.10
2023-04-21T16:53:57.264Z,53.70
2023-04-21T16:56:59.504Z,53.80
2023-04-21T16:59:55.323Z,54.30
2023-04-21T17:02:50.318Z,54.50
2023-04-21T17:05:42.967Z,55.10
2023-04-21T17:08:32.963Z,54.70
2023-04-21T17:11:38.097Z,54.70
2023-04-21T17:14:35.622Z,55.40
2023-04-21T17:17:33.837Z,55.00
2023-04-21T17:20:27.166Z,55.00
2023-04-21T17:23:23.323Z,55.30
2023-04-21T17:26:18.818Z,55.40
2023-04-21T17:29:10.384Z,56.00
2023-04-21T17:32:05.731Z,55.90
2023-04-21T17:35:07.997Z,55.90
2023-04-21T17:38:05.970Z,56.30
2023-04-21T17:40:56.177Z,56.30
2023-04-21T17:43:50.050Z,56.60
2023-04-21T17:46:45.029Z,56.60
2023-04-21T17:49:36.759Z,56.90
2023-04-21T17:52:31.400Z,57.00
2023-04-21T17:55:30.682Z,57.00
2023-04-21T17:58:23.614Z,58.00
2023-04-21T18:01:16.218Z,57.50
2023-04-21T18:04:31.031Z,57.90
2023-04-21T18:07:28.735Z,58.00
2023-04-21T18:10:22.045Z,58.30
2023-04-21T18:13:13.001Z,58.40
2023-04-21T18:16:03.151Z,59.80
2023-04-21T18:18:56.928Z,61.30
2023-04-21T18:21:53.155Z,62.30
2023-04-21T18:24:51.759Z,62.20
2023-04-21T18:27:44.693Z,62.60
2023-04-21T18:30:34.106Z,64.10
2023-04-21T18:33:27.043Z,64.50
2023-04-21T18:36:20.062Z,66.00
2023-04-21T18:39:12.908Z,66.90
2023-04-21T18:42:15.106Z,66.90
2023-04-21T19:20:36.617Z,71.90
2023-04-21T19:23:38.257Z,73.80
2023-04-21T19:26:30.158Z,73.80
2023-04-21T19:29:31.318Z,73.60
2023-04-21T19:32:28.613Z,73.40
2023-04-21T19:35:25.545Z,73.40
2023-04-21T19:38:26.473Z,72.50
2023-04-21T19:41:19.072Z,71.70
2023-04-21T19:44:17.394Z,71.00
2023-04-21T19:47:08.524Z,70.10
2023-04-21T19:50:07.767Z,69.50
2023-04-21T19:53:02.293Z,69.30
2023-04-21T19:55:52.764Z,68.60
2023-04-21T19:58:46.705Z,68.20
2023-04-21T20:01:36.309Z,68.10
2023-04-21T20:04:39.764Z,68.20
2023-04-21T20:07:30.407Z,68.00
2023-04-21T20:10:24.894Z,67.70
2023-04-21T20:13:16.219Z,68.00
2023-04-21T20:16:12.511Z,68.20
2023-04-21T20:19:05.708Z,68.20
2023-04-21T20:21:59.908Z,68.70
2023-04-21T20:24:54.448Z,68.80
2023-04-21T20:27:51.142Z,68.80
2023-04-21T20:30:43.097Z,69.10
2023-04-21T20:33:37.761Z,69.30
2023-04-21T20:36:30.644Z,69.70
2023-04-21T20:39:22.800Z,70.00
2023-04-21T20:42:19.547Z,70.40
2023-04-21T20:45:17.865Z,70.80
2023-04-21T20:48:09.106Z,71.00
2023-04-21T20:51:03.285Z,71.20
2023-04-21T20:53:52.837Z,71.60
2023-04-21T20:56:43.821Z,72.20
2023-04-21T20:59:44.693Z,72.30
2023-04-21T21:02:39.520Z,72.20
2023-04-21T21:05:35.020Z,72.40
2023-04-21T21:08:34.054Z,73.40
2023-04-21T21:11:28.198Z,73.80
2023-04-21T21:14:22.019Z,73.60
2023-04-21T21:17:13.547Z,74.30
2023-04-21T21:20:11.644Z,74.10
2023-04-21T21:23:01.270Z,74.60
2023-04-21T21:25:52.277Z,74.30
2023-04-21T21:28:43.861Z,74.40
2023-04-21T21:31:31.813Z,74.60
2023-04-21T21:34:19.446Z,75.50
2023-04-21T21:37:08.722Z,75.70
2023-04-21T21:39:56.345Z,75.50
2023-04-21T21:42:44.088Z,76.10
2023-04-21T21:45:32.159Z,76.10
2023-04-21T21:48:19.621Z,76.80
2023-04-21T21:51:07.135Z,77.20
2023-04-21T21:53:56.349Z,77.70
2023-04-21T21:56:44.993Z,78.10
2023-04-21T21:59:33.032Z,78.30
2023-04-21T22:02:20.423Z,78.70
2023-04-21T22:05:09.421Z,78.60
2023-04-21T22:07:57.096Z,79.00
2023-04-21T22:10:46.670Z,79.40
2023-04-21T22:13:34.548Z,79.90
2023-04-21T22:16:22.717Z,80.20
2023-04-21T22:19:10.765Z,80.40
2023-04-21T22:21:58.447Z,80.70
2023-04-21T22:24:46.015Z,81.10
2023-04-21T22:27:36.337Z,81.40
2023-04-21T22:30:24.164Z,81.80
2023-04-21T22:33:12.087Z,82.20
2023-04-21T22:35:59.926Z,82.40
2023-04-21T22:38:47.613Z,82.60
2023-04-21T22:41:35.409Z,82.90
2023-04-21T22:44:24.823Z,83.20
2023-04-21T22:47:13.347Z,83.50
2023-04-21T22:50:00.850Z,82.60
2023-04-21T22:52:48.938Z,84.20
2023-04-21T22:55:36.581Z,84.20
2023-04-21T22:58:24.440Z,84.40
2023-04-21T23:01:13.805Z,84.20
2023-04-21T23:04:01.612Z,84.60
2023-04-21T23:06:50.090Z,84.90
2023-04-21T23:09:38.400Z,85.10
2023-04-21T23:12:26.540Z,85.30
2023-04-21T23:15:14.138Z,85.40
2023-04-21T23:18:03.515Z,85.50
2023-04-21T23:20:50.865Z,85.80
2023-04-21T23:23:38.808Z,85.90
2023-04-21T23:26:25.988Z,86.10
2023-04-21T23:29:13.476Z,86.20
2023-04-21T23:32:01.759Z,86.80
2023-04-21T23:34:50.950Z,86.60
2023-04-21T23:37:38.775Z,86.60
2023-04-21T23:40:26.519Z,86.80
2023-04-21T23:43:14.267Z,86.90
2023-04-21T23:46:02.197Z,87.00
2023-04-21T23:48:50.002Z,87.20
2023-04-21T23:51:39.072Z,87.40
2023-04-21T23:54:26.964Z,87.50
2023-04-21T23:57:14.747Z,87.40
